sensor_id;sensor_type;location;lat;lon;timestamp;P1;durP1;ratioP1;P2;durP2;ratioP2
37445;SDS011;23307;51.136;14.942;2023-08-08T00:00:34;3.70;;;2.00;;
37445;SDS011;23307;51.136;14.942;2023-08-08T00:03:00;3.55;;;1.63;;
37445;SDS011;23307;51.136;14.942;2023-08-08T00:05:26;4.50;;;1.98;;
37445;SDS011;23307;51.136;14.942;2023-08-08T00:07:51;4.65;;;1.63;;
37445;SDS011;23307;51.136;14.942;2023-08-08T00:10:17;4.72;;;1.60;;
37445;SDS011;23307;51.136;14.942;2023-08-08T00:12:42;5.38;;;1.92;;
37445;SDS011;23307;51.136;14.942;2023-08-08T00:15:08;5.00;;;2.00;;
37445;SDS011;23307;51.136;14.942;2023-08-08T00:17:34;3.55;;;2.22;;
37445;SDS011;23307;51.136;14.942;2023-08-08T00:20:00;3.80;;;1.88;;
37445;SDS011;23307;51.136;14.942;2023-08-08T00:22:25;4.75;;;1.92;;
37445;SDS011;23307;51.136;14.942;2023-08-08T00:24:51;5.47;;;1.90;;
37445;SDS011;23307;51.136;14.942;2023-08-08T00:27:16;2.55;;;1.83;;
37445;SDS011;23307;51.136;14.942;2023-08-08T00:29:42;4.80;;;1.90;;
37445;SDS011;23307;51.136;14.942;2023-08-08T00:32:07;3.67;;;1.90;;
37445;SDS011;23307;51.136;14.942;2023-08-08T00:34:33;7.28;;;2.10;;
37445;SDS011;23307;51.136;14.942;2023-08-08T00:36:58;5.55;;;2.00;;
37445;SDS011;23307;51.136;14.942;2023-08-08T00:39:24;3.85;;;2.03;;
37445;SDS011;23307;51.136;14.942;2023-08-08T00:41:49;3.85;;;2.20;;
37445;SDS011;23307;51.136;14.942;2023-08-08T00:44:15;3.40;;;1.92;;
37445;SDS011;23307;51.136;14.942;2023-08-08T00:46:41;3.88;;;1.95;;
37445;SDS011;23307;51.136;14.942;2023-08-08T00:49:07;3.80;;;1.92;;
37445;SDS011;23307;51.136;14.942;2023-08-08T00:51:32;3.05;;;2.00;;
37445;SDS011;23307;51.136;14.942;2023-08-08T00:53:59;5.70;;;2.00;;
37445;SDS011;23307;51.136;14.942;2023-08-08T00:56:24;2.65;;;2.15;;
37445;SDS011;23307;51.136;14.942;2023-08-08T00:58:50;3.55;;;1.65;;
37445;SDS011;23307;51.136;14.942;2023-08-08T01:01:16;6.45;;;2.22;;
37445;SDS011;23307;51.136;14.942;2023-08-08T01:03:42;5.68;;;2.13;;
37445;SDS011;23307;51.136;14.942;2023-08-08T01:06:13;3.72;;;2.00;;
37445;SDS011;23307;51.136;14.942;2023-08-08T01:09:04;8.10;;;2.08;;
37445;SDS011;23307;51.136;14.942;2023-08-08T01:11:59;3.67;;;1.80;;
37445;SDS011;23307;51.136;14.942;2023-08-08T01:14:27;3.22;;;1.80;;
37445;SDS011;23307;51.136;14.942;2023-08-08T01:16:55;5.72;;;2.00;;
37445;SDS011;23307;51.136;14.942;2023-08-08T01:19:29;3.67;;;2.17;;
37445;SDS011;23307;51.136;14.942;2023-08-08T01:21:58;4.15;;;1.80;;
37445;SDS011;23307;51.136;14.942;2023-08-08T01:24:30;4.28;;;1.98;;
37445;SDS011;23307;51.136;14.942;2023-08-08T01:26:58;3.78;;;1.65;;
37445;SDS011;23307;51.136;14.942;2023-08-08T01:29:25;4.70;;;1.95;;
37445;SDS011;23307;51.136;14.942;2023-08-08T01:31:52;4.55;;;2.38;;
37445;SDS011;23307;51.136;14.942;2023-08-08T01:34:17;5.30;;;1.90;;
37445;SDS011;23307;51.136;14.942;2023-08-08T01:36:48;5.10;;;2.05;;
37445;SDS011;23307;51.136;14.942;2023-08-08T01:39:20;3.88;;;2.00;;
37445;SDS011;23307;51.136;14.942;2023-08-08T01:41:50;4.32;;;1.92;;
37445;SDS011;23307;51.136;14.942;2023-08-08T01:44:17;7.35;;;2.40;;
37445;SDS011;23307;51.136;14.942;2023-08-08T01:46:43;3.92;;;2.17;;
37445;SDS011;23307;51.136;14.942;2023-08-08T01:49:09;4.38;;;2.00;;
37445;SDS011;23307;51.136;14.942;2023-08-08T01:51:34;4.05;;;2.05;;
37445;SDS011;23307;51.136;14.942;2023-08-08T01:54:00;3.17;;;1.90;;
37445;SDS011;23307;51.136;14.942;2023-08-08T01:56:25;5.57;;;2.25;;
37445;SDS011;23307;51.136;14.942;2023-08-08T01:58:51;6.53;;;2.15;;
37445;SDS011;23307;51.136;14.942;2023-08-08T02:01:16;4.45;;;1.70;;
37445;SDS011;23307;51.136;14.942;2023-08-08T02:03:42;8.70;;;2.45;;
37445;SDS011;23307;51.136;14.942;2023-08-08T02:06:07;3.47;;;1.83;;
37445;SDS011;23307;51.136;14.942;2023-08-08T02:08:33;3.60;;;1.90;;
37445;SDS011;23307;51.136;14.942;2023-08-08T02:10:58;4.63;;;2.33;;
37445;SDS011;23307;51.136;14.942;2023-08-08T02:13:24;5.57;;;1.95;;
37445;SDS011;23307;51.136;14.942;2023-08-08T02:15:49;3.97;;;1.85;;
37445;SDS011;23307;51.136;14.942;2023-08-08T02:18:15;2.53;;;1.85;;
37445;SDS011;23307;51.136;14.942;2023-08-08T02:20:40;4.97;;;2.03;;
37445;SDS011;23307;51.136;14.942;2023-08-08T02:23:06;4.07;;;2.03;;
37445;SDS011;23307;51.136;14.942;2023-08-08T02:25:32;2.75;;;1.77;;
37445;SDS011;23307;51.136;14.942;2023-08-08T02:27:57;3.33;;;2.08;;
37445;SDS011;23307;51.136;14.942;2023-08-08T02:30:23;4.40;;;1.85;;
37445;SDS011;23307;51.136;14.942;2023-08-08T02:32:48;6.45;;;2.55;;
37445;SDS011;23307;51.136;14.942;2023-08-08T02:35:14;2.95;;;1.90;;
37445;SDS011;23307;51.136;14.942;2023-08-08T02:37:39;4.97;;;2.35;;
37445;SDS011;23307;51.136;14.942;2023-08-08T02:40:06;6.68;;;2.03;;
37445;SDS011;23307;51.136;14.942;2023-08-08T02:42:32;5.45;;;2.28;;
37445;SDS011;23307;51.136;14.942;2023-08-08T02:44:58;7.50;;;2.63;;
37445;SDS011;23307;51.136;14.942;2023-08-08T02:47:24;5.07;;;1.80;;
37445;SDS011;23307;51.136;14.942;2023-08-08T02:49:49;6.38;;;1.90;;
37445;SDS011;23307;51.136;14.942;2023-08-08T02:52:15;5.28;;;2.13;;
37445;SDS011;23307;51.136;14.942;2023-08-08T02:54:41;4.07;;;1.83;;
37445;SDS011;23307;51.136;14.942;2023-08-08T02:57:06;4.43;;;2.08;;
37445;SDS011;23307;51.136;14.942;2023-08-08T02:59:32;4.80;;;1.95;;
37445;SDS011;23307;51.136;14.942;2023-08-08T03:01:57;4.07;;;2.10;;
37445;SDS011;23307;51.136;14.942;2023-08-08T03:04:23;6.03;;;2.05;;
37445;SDS011;23307;51.136;14.942;2023-08-08T03:06:48;6.97;;;1.80;;
37445;SDS011;23307;51.136;14.942;2023-08-08T03:09:14;3.10;;;1.70;;
37445;SDS011;23307;51.136;14.942;2023-08-08T03:11:39;2.70;;;1.98;;
37445;SDS011;23307;51.136;14.942;2023-08-08T03:14:07;5.85;;;2.40;;
37445;SDS011;23307;51.136;14.942;2023-08-08T03:16:33;5.07;;;2.20;;
37445;SDS011;23307;51.136;14.942;2023-08-08T03:18:59;4.60;;;1.77;;
37445;SDS011;23307;51.136;14.942;2023-08-08T03:21:25;3.03;;;1.80;;
37445;SDS011;23307;51.136;14.942;2023-08-08T03:23:50;5.57;;;1.90;;
37445;SDS011;23307;51.136;14.942;2023-08-08T03:26:16;3.47;;;1.98;;
37445;SDS011;23307;51.136;14.942;2023-08-08T03:28:41;5.50;;;2.33;;
37445;SDS011;23307;51.136;14.942;2023-08-08T03:31:07;4.25;;;1.85;;
37445;SDS011;23307;51.136;14.942;2023-08-08T03:33:32;3.90;;;2.00;;
37445;SDS011;23307;51.136;14.942;2023-08-08T03:35:58;5.78;;;2.20;;
37445;SDS011;23307;51.136;14.942;2023-08-08T03:38:23;3.70;;;1.88;;
37445;SDS011;23307;51.136;14.942;2023-08-08T03:40:49;4.45;;;2.10;;
37445;SDS011;23307;51.136;14.942;2023-08-08T03:43:15;3.58;;;1.70;;
37445;SDS011;23307;51.136;14.942;2023-08-08T03:45:41;5.18;;;1.90;;
37445;SDS011;23307;51.136;14.942;2023-08-08T03:48:06;2.38;;;1.60;;
37445;SDS011;23307;51.136;14.942;2023-08-08T03:50:32;4.43;;;2.03;;
37445;SDS011;23307;51.136;14.942;2023-08-08T03:52:57;2.63;;;1.88;;
37445;SDS011;23307;51.136;14.942;2023-08-08T03:55:23;3.58;;;2.08;;
37445;SDS011;23307;51.136;14.942;2023-08-08T03:57:48;4.75;;;2.10;;
37445;SDS011;23307;51.136;14.942;2023-08-08T04:00:14;3.22;;;2.20;;
37445;SDS011;23307;51.136;14.942;2023-08-08T04:02:40;4.10;;;2.00;;
37445;SDS011;23307;51.136;14.942;2023-08-08T04:05:06;4.05;;;1.98;;
37445;SDS011;23307;51.136;14.942;2023-08-08T04:07:32;3.92;;;2.28;;
37445;SDS011;23307;51.136;14.942;2023-08-08T04:09:57;7.13;;;2.22;;
37445;SDS011;23307;51.136;14.942;2023-08-08T04:12:23;5.72;;;2.15;;
37445;SDS011;23307;51.136;14.942;2023-08-08T04:14:48;4.82;;;2.05;;
37445;SDS011;23307;51.136;14.942;2023-08-08T04:17:14;4.85;;;1.90;;
37445;SDS011;23307;51.136;14.942;2023-08-08T04:19:39;4.78;;;2.25;;
37445;SDS011;23307;51.136;14.942;2023-08-08T04:22:05;3.70;;;1.85;;
37445;SDS011;23307;51.136;14.942;2023-08-08T04:24:30;3.63;;;2.17;;
37445;SDS011;23307;51.136;14.942;2023-08-08T04:26:56;4.68;;;1.92;;
37445;SDS011;23307;51.136;14.942;2023-08-08T04:29:21;7.25;;;2.22;;
37445;SDS011;23307;51.136;14.942;2023-08-08T04:31:47;3.10;;;2.05;;
37445;SDS011;23307;51.136;14.942;2023-08-08T04:34:12;5.30;;;2.13;;
37445;SDS011;23307;51.136;14.942;2023-08-08T04:36:38;6.10;;;2.13;;
37445;SDS011;23307;51.136;14.942;2023-08-08T04:39:03;3.45;;;1.90;;
37445;SDS011;23307;51.136;14.942;2023-08-08T04:41:29;4.47;;;2.30;;
37445;SDS011;23307;51.136;14.942;2023-08-08T04:43:54;5.15;;;2.40;;
37445;SDS011;23307;51.136;14.942;2023-08-08T04:46:20;2.92;;;2.00;;
37445;SDS011;23307;51.136;14.942;2023-08-08T04:48:45;3.97;;;2.03;;
37445;SDS011;23307;51.136;14.942;2023-08-08T04:51:11;6.10;;;2.20;;
37445;SDS011;23307;51.136;14.942;2023-08-08T04:53:37;3.13;;;1.85;;
37445;SDS011;23307;51.136;14.942;2023-08-08T04:56:02;3.50;;;2.25;;
37445;SDS011;23307;51.136;14.942;2023-08-08T04:58:28;4.15;;;2.10;;
37445;SDS011;23307;51.136;14.942;2023-08-08T05:00:54;3.20;;;2.03;;
37445;SDS011;23307;51.136;14.942;2023-08-08T05:03:20;1.83;;;1.63;;
37445;SDS011;23307;51.136;14.942;2023-08-08T05:05:45;4.00;;;2.53;;
37445;SDS011;23307;51.136;14.942;2023-08-08T05:08:11;6.40;;;2.00;;
37445;SDS011;23307;51.136;14.942;2023-08-08T05:10:40;3.65;;;2.13;;
37445;SDS011;23307;51.136;14.942;2023-08-08T05:13:05;2.67;;;1.85;;
37445;SDS011;23307;51.136;14.942;2023-08-08T05:15:31;4.22;;;1.92;;
37445;SDS011;23307;51.136;14.942;2023-08-08T05:17:57;3.10;;;1.98;;
37445;SDS011;23307;51.136;14.942;2023-08-08T05:20:22;6.18;;;2.15;;
37445;SDS011;23307;51.136;14.942;2023-08-08T05:22:48;3.28;;;1.67;;
37445;SDS011;23307;51.136;14.942;2023-08-08T05:25:14;3.63;;;2.20;;
37445;SDS011;23307;51.136;14.942;2023-08-08T05:27:39;5.88;;;2.10;;
37445;SDS011;23307;51.136;14.942;2023-08-08T05:30:05;2.83;;;1.80;;
37445;SDS011;23307;51.136;14.942;2023-08-08T05:32:31;4.60;;;1.65;;
37445;SDS011;23307;51.136;14.942;2023-08-08T05:34:57;4.38;;;1.65;;
37445;SDS011;23307;51.136;14.942;2023-08-08T05:37:26;3.05;;;2.03;;
37445;SDS011;23307;51.136;14.942;2023-08-08T05:39:52;2.53;;;1.60;;
37445;SDS011;23307;51.136;14.942;2023-08-08T05:42:18;3.15;;;1.90;;
37445;SDS011;23307;51.136;14.942;2023-08-08T05:44:44;5.47;;;1.88;;
37445;SDS011;23307;51.136;14.942;2023-08-08T05:47:10;2.63;;;1.95;;
37445;SDS011;23307;51.136;14.942;2023-08-08T05:49:36;2.90;;;1.92;;
37445;SDS011;23307;51.136;14.942;2023-08-08T05:52:03;2.13;;;1.50;;
37445;SDS011;23307;51.136;14.942;2023-08-08T05:54:28;4.50;;;1.80;;
37445;SDS011;23307;51.136;14.942;2023-08-08T05:56:54;1.85;;;1.60;;
37445;SDS011;23307;51.136;14.942;2023-08-08T05:59:19;3.58;;;1.83;;
37445;SDS011;23307;51.136;14.942;2023-08-08T06:01:45;2.60;;;1.80;;
37445;SDS011;23307;51.136;14.942;2023-08-08T06:04:11;3.45;;;1.67;;
37445;SDS011;23307;51.136;14.942;2023-08-08T06:06:37;3.40;;;1.83;;
37445;SDS011;23307;51.136;14.942;2023-08-08T06:09:03;1.60;;;1.40;;
37445;SDS011;23307;51.136;14.942;2023-08-08T06:11:28;5.50;;;1.85;;
37445;SDS011;23307;51.136;14.942;2023-08-08T06:13:54;2.85;;;1.83;;
37445;SDS011;23307;51.136;14.942;2023-08-08T06:16:20;2.35;;;1.40;;
37445;SDS011;23307;51.136;14.942;2023-08-08T06:18:46;3.67;;;1.88;;
37445;SDS011;23307;51.136;14.942;2023-08-08T06:21:11;2.17;;;1.50;;
37445;SDS011;23307;51.136;14.942;2023-08-08T06:23:37;3.60;;;1.60;;
37445;SDS011;23307;51.136;14.942;2023-08-08T06:26:02;2.97;;;1.63;;
37445;SDS011;23307;51.136;14.942;2023-08-08T06:28:28;2.40;;;1.65;;
37445;SDS011;23307;51.136;14.942;2023-08-08T06:30:55;2.67;;;1.60;;
37445;SDS011;23307;51.136;14.942;2023-08-08T06:33:22;3.53;;;2.13;;
37445;SDS011;23307;51.136;14.942;2023-08-08T06:35:48;3.92;;;1.50;;
37445;SDS011;23307;51.136;14.942;2023-08-08T06:38:14;2.42;;;1.67;;
37445;SDS011;23307;51.136;14.942;2023-08-08T06:40:39;4.05;;;1.77;;
37445;SDS011;23307;51.136;14.942;2023-08-08T06:43:05;2.83;;;1.73;;
37445;SDS011;23307;51.136;14.942;2023-08-08T06:45:30;3.70;;;1.73;;
37445;SDS011;23307;51.136;14.942;2023-08-08T06:47:56;1.83;;;1.55;;
37445;SDS011;23307;51.136;14.942;2023-08-08T06:50:22;3.22;;;1.63;;
37445;SDS011;23307;51.136;14.942;2023-08-08T06:52:49;1.90;;;1.50;;
37445;SDS011;23307;51.136;14.942;2023-08-08T06:55:15;2.88;;;1.48;;
37445;SDS011;23307;51.136;14.942;2023-08-08T06:57:40;1.92;;;1.52;;
37445;SDS011;23307;51.136;14.942;2023-08-08T07:00:06;3.30;;;1.40;;
37445;SDS011;23307;51.136;14.942;2023-08-08T07:02:33;2.60;;;1.67;;
37445;SDS011;23307;51.136;14.942;2023-08-08T07:04:59;2.90;;;1.33;;
37445;SDS011;23307;51.136;14.942;2023-08-08T07:07:25;2.92;;;1.55;;
37445;SDS011;23307;51.136;14.942;2023-08-08T07:09:51;2.10;;;1.60;;
37445;SDS011;23307;51.136;14.942;2023-08-08T07:12:16;8.43;;;1.67;;
37445;SDS011;23307;51.136;14.942;2023-08-08T07:14:42;2.63;;;1.48;;
37445;SDS011;23307;51.136;14.942;2023-08-08T07:17:07;2.22;;;1.33;;
37445;SDS011;23307;51.136;14.942;2023-08-08T07:19:33;3.42;;;1.55;;
37445;SDS011;23307;51.136;14.942;2023-08-08T07:21:58;1.77;;;1.50;;
37445;SDS011;23307;51.136;14.942;2023-08-08T07:24:24;4.00;;;1.20;;
37445;SDS011;23307;51.136;14.942;2023-08-08T07:26:54;2.58;;;1.40;;
37445;SDS011;23307;51.136;14.942;2023-08-08T07:29:23;3.67;;;1.35;;
37445;SDS011;23307;51.136;14.942;2023-08-08T07:31:49;2.70;;;1.50;;
37445;SDS011;23307;51.136;14.942;2023-08-08T07:34:16;2.15;;;1.50;;
37445;SDS011;23307;51.136;14.942;2023-08-08T07:36:41;4.05;;;1.50;;
37445;SDS011;23307;51.136;14.942;2023-08-08T07:39:07;4.70;;;1.30;;
37445;SDS011;23307;51.136;14.942;2023-08-08T07:41:32;2.22;;;1.40;;
37445;SDS011;23307;51.136;14.942;2023-08-08T07:43:58;1.73;;;1.60;;
37445;SDS011;23307;51.136;14.942;2023-08-08T07:46:23;2.72;;;1.30;;
37445;SDS011;23307;51.136;14.942;2023-08-08T07:48:49;1.60;;;1.33;;
37445;SDS011;23307;51.136;14.942;2023-08-08T07:51:14;3.17;;;1.70;;
37445;SDS011;23307;51.136;14.942;2023-08-08T07:53:40;4.20;;;1.95;;
37445;SDS011;23307;51.136;14.942;2023-08-08T07:56:05;2.90;;;1.40;;
37445;SDS011;23307;51.136;14.942;2023-08-08T07:58:31;3.50;;;1.52;;
37445;SDS011;23307;51.136;14.942;2023-08-08T08:00:57;2.97;;;1.50;;
37445;SDS011;23307;51.136;14.942;2023-08-08T08:03:24;2.42;;;1.45;;
37445;SDS011;23307;51.136;14.942;2023-08-08T08:05:50;1.88;;;1.42;;
37445;SDS011;23307;51.136;14.942;2023-08-08T08:08:17;3.53;;;1.65;;
37445;SDS011;23307;51.136;14.942;2023-08-08T08:10:43;1.67;;;1.20;;
37445;SDS011;23307;51.136;14.942;2023-08-08T08:13:10;3.65;;;1.75;;
37445;SDS011;23307;51.136;14.942;2023-08-08T08:15:36;4.30;;;1.50;;
37445;SDS011;23307;51.136;14.942;2023-08-08T08:18:02;3.15;;;1.30;;
37445;SDS011;23307;51.136;14.942;2023-08-08T08:20:28;2.05;;;1.40;;
37445;SDS011;23307;51.136;14.942;2023-08-08T08:22:53;2.38;;;1.42;;
37445;SDS011;23307;51.136;14.942;2023-08-08T08:25:19;2.20;;;1.27;;
37445;SDS011;23307;51.136;14.942;2023-08-08T08:27:45;1.27;;;1.08;;
37445;SDS011;23307;51.136;14.942;2023-08-08T08:30:10;2.30;;;1.30;;
37445;SDS011;23307;51.136;14.942;2023-08-08T08:32:37;3.60;;;1.60;;
37445;SDS011;23307;51.136;14.942;2023-08-08T08:35:04;1.83;;;1.20;;
37445;SDS011;23307;51.136;14.942;2023-08-08T08:37:31;5.72;;;1.80;;
37445;SDS011;23307;51.136;14.942;2023-08-08T08:39:57;1.58;;;1.20;;
37445;SDS011;23307;51.136;14.942;2023-08-08T08:42:23;3.45;;;1.48;;
37445;SDS011;23307;51.136;14.942;2023-08-08T08:44:49;2.45;;;1.50;;
37445;SDS011;23307;51.136;14.942;2023-08-08T08:47:17;2.08;;;1.60;;
37445;SDS011;23307;51.136;14.942;2023-08-08T08:49:44;3.42;;;1.90;;
37445;SDS011;23307;51.136;14.942;2023-08-08T08:52:11;3.40;;;1.75;;
37445;SDS011;23307;51.136;14.942;2023-08-08T08:54:37;3.97;;;1.50;;
37445;SDS011;23307;51.136;14.942;2023-08-08T08:57:03;1.88;;;1.48;;
37445;SDS011;23307;51.136;14.942;2023-08-08T08:59:29;3.00;;;1.40;;
37445;SDS011;23307;51.136;14.942;2023-08-08T09:01:55;3.45;;;1.38;;
37445;SDS011;23307;51.136;14.942;2023-08-08T09:04:21;2.88;;;1.30;;
37445;SDS011;23307;51.136;14.942;2023-08-08T09:06:48;2.55;;;1.40;;
37445;SDS011;23307;51.136;14.942;2023-08-08T09:09:14;2.05;;;1.42;;
37445;SDS011;23307;51.136;14.942;2023-08-08T09:11:44;2.30;;;1.33;;
37445;SDS011;23307;51.136;14.942;2023-08-08T09:14:22;3.05;;;1.60;;
37445;SDS011;23307;51.136;14.942;2023-08-08T09:16:49;1.77;;;1.25;;
37445;SDS011;23307;51.136;14.942;2023-08-08T09:19:17;2.35;;;1.23;;
37445;SDS011;23307;51.136;14.942;2023-08-08T09:21:44;2.10;;;1.20;;
37445;SDS011;23307;51.136;14.942;2023-08-08T09:24:10;3.55;;;1.42;;
37445;SDS011;23307;51.136;14.942;2023-08-08T09:26:35;4.95;;;1.70;;
37445;SDS011;23307;51.136;14.942;2023-08-08T09:29:02;2.30;;;1.35;;
37445;SDS011;23307;51.136;14.942;2023-08-08T09:31:28;3.70;;;1.35;;
37445;SDS011;23307;51.136;14.942;2023-08-08T09:33:56;1.23;;;1.13;;
37445;SDS011;23307;51.136;14.942;2023-08-08T09:36:26;1.77;;;1.40;;
37445;SDS011;23307;51.136;14.942;2023-08-08T09:38:52;3.05;;;1.50;;
37445;SDS011;23307;51.136;14.942;2023-08-08T09:41:21;1.73;;;1.35;;
37445;SDS011;23307;51.136;14.942;2023-08-08T09:43:48;1.83;;;1.48;;
37445;SDS011;23307;51.136;14.942;2023-08-08T09:46:14;2.25;;;1.10;;
37445;SDS011;23307;51.136;14.942;2023-08-08T09:48:41;2.30;;;1.60;;
37445;SDS011;23307;51.136;14.942;2023-08-08T09:51:07;1.88;;;1.40;;
37445;SDS011;23307;51.136;14.942;2023-08-08T09:53:34;4.40;;;1.48;;
37445;SDS011;23307;51.136;14.942;2023-08-08T09:56:01;2.28;;;1.48;;
37445;SDS011;23307;51.136;14.942;2023-08-08T09:58:28;3.75;;;1.52;;
37445;SDS011;23307;51.136;14.942;2023-08-08T10:00:54;2.15;;;1.33;;
37445;SDS011;23307;51.136;14.942;2023-08-08T10:03:20;1.90;;;1.63;;
37445;SDS011;23307;51.136;14.942;2023-08-08T10:05:47;1.42;;;1.33;;
37445;SDS011;23307;51.136;14.942;2023-08-08T10:08:16;3.28;;;1.63;;
37445;SDS011;23307;51.136;14.942;2023-08-08T10:10:45;1.80;;;1.20;;
37445;SDS011;23307;51.136;14.942;2023-08-08T10:13:25;1.67;;;1.30;;
37445;SDS011;23307;51.136;14.942;2023-08-08T10:15:51;1.52;;;1.35;;
37445;SDS011;23307;51.136;14.942;2023-08-08T10:18:18;5.40;;;1.48;;
37445;SDS011;23307;51.136;14.942;2023-08-08T10:20:49;1.45;;;1.20;;
37445;SDS011;23307;51.136;14.942;2023-08-08T10:23:16;4.20;;;1.52;;
37445;SDS011;23307;51.136;14.942;2023-08-08T10:25:48;2.67;;;1.77;;
37445;SDS011;23307;51.136;14.942;2023-08-08T10:28:17;2.65;;;1.38;;
37445;SDS011;23307;51.136;14.942;2023-08-08T10:30:46;4.20;;;1.60;;
37445;SDS011;23307;51.136;14.942;2023-08-08T10:33:21;1.77;;;1.67;;
37445;SDS011;23307;51.136;14.942;2023-08-08T10:36:01;3.35;;;1.40;;
37445;SDS011;23307;51.136;14.942;2023-08-08T10:38:45;4.03;;;2.00;;
37445;SDS011;23307;51.136;14.942;2023-08-08T10:41:20;2.70;;;1.63;;
37445;SDS011;23307;51.136;14.942;2023-08-08T10:43:49;2.97;;;1.30;;
37445;SDS011;23307;51.136;14.942;2023-08-08T10:46:24;1.55;;;1.45;;
37445;SDS011;23307;51.136;14.942;2023-08-08T10:48:58;2.05;;;1.50;;
37445;SDS011;23307;51.136;14.942;2023-08-08T10:51:37;4.07;;;2.00;;
37445;SDS011;23307;51.136;14.942;2023-08-08T10:54:04;3.03;;;1.42;;
37445;SDS011;23307;51.136;14.942;2023-08-08T10:56:55;4.55;;;1.35;;
37445;SDS011;23307;51.136;14.942;2023-08-08T10:59:27;2.90;;;1.48;;
37445;SDS011;23307;51.136;14.942;2023-08-08T11:02:01;1.95;;;1.80;;
37445;SDS011;23307;51.136;14.942;2023-08-08T11:04:27;4.88;;;1.45;;
37445;SDS011;23307;51.136;14.942;2023-08-08T11:06:55;3.92;;;1.30;;
37445;SDS011;23307;51.136;14.942;2023-08-08T11:09:21;1.40;;;1.30;;
37445;SDS011;23307;51.136;14.942;2023-08-08T11:11:47;5.93;;;2.97;;
37445;SDS011;23307;51.136;14.942;2023-08-08T11:14:17;2.58;;;1.40;;
37445;SDS011;23307;51.136;14.942;2023-08-08T11:16:44;1.80;;;1.70;;
37445;SDS011;23307;51.136;14.942;2023-08-08T11:19:11;2.40;;;1.73;;
37445;SDS011;23307;51.136;14.942;2023-08-08T11:21:39;2.25;;;1.50;;
37445;SDS011;23307;51.136;14.942;2023-08-08T11:24:06;2.85;;;1.38;;
37445;SDS011;23307;51.136;14.942;2023-08-08T11:26:33;2.25;;;1.35;;
37445;SDS011;23307;51.136;14.942;2023-08-08T11:29:00;2.22;;;1.40;;
37445;SDS011;23307;51.136;14.942;2023-08-08T11:31:27;1.92;;;1.52;;
37445;SDS011;23307;51.136;14.942;2023-08-08T11:33:53;1.67;;;1.58;;
37445;SDS011;23307;51.136;14.942;2023-08-08T11:36:22;2.33;;;1.50;;
37445;SDS011;23307;51.136;14.942;2023-08-08T11:38:49;1.85;;;1.50;;
37445;SDS011;23307;51.136;14.942;2023-08-08T11:41:16;2.38;;;1.40;;
37445;SDS011;23307;51.136;14.942;2023-08-08T11:43:44;1.52;;;1.42;;
37445;SDS011;23307;51.136;14.942;2023-08-08T11:46:13;1.95;;;1.55;;
37445;SDS011;23307;51.136;14.942;2023-08-08T11:48:40;2.05;;;1.20;;
37445;SDS011;23307;51.136;14.942;2023-08-08T11:51:07;1.75;;;1.40;;
37445;SDS011;23307;51.136;14.942;2023-08-08T11:53:34;3.67;;;1.40;;
37445;SDS011;23307;51.136;14.942;2023-08-08T11:56:00;2.33;;;1.70;;
37445;SDS011;23307;51.136;14.942;2023-08-08T11:58:28;3.15;;;1.50;;
37445;SDS011;23307;51.136;14.942;2023-08-08T12:00:54;2.40;;;1.42;;
37445;SDS011;23307;51.136;14.942;2023-08-08T12:03:21;3.53;;;1.60;;
37445;SDS011;23307;51.136;14.942;2023-08-08T12:05:49;2.17;;;1.40;;
37445;SDS011;23307;51.136;14.942;2023-08-08T12:08:19;4.03;;;1.52;;
37445;SDS011;23307;51.136;14.942;2023-08-08T12:10:49;2.10;;;1.38;;
37445;SDS011;23307;51.136;14.942;2023-08-08T12:13:23;3.45;;;1.50;;
37445;SDS011;23307;51.136;14.942;2023-08-08T12:15:52;2.80;;;1.50;;
37445;SDS011;23307;51.136;14.942;2023-08-08T12:18:18;2.33;;;1.50;;
37445;SDS011;23307;51.136;14.942;2023-08-08T12:20:44;2.55;;;1.40;;
37445;SDS011;23307;51.136;14.942;2023-08-08T12:23:11;1.98;;;1.45;;
37445;SDS011;23307;51.136;14.942;2023-08-08T12:25:37;5.72;;;1.80;;
37445;SDS011;23307;51.136;14.942;2023-08-08T12:28:04;2.75;;;1.60;;
37445;SDS011;23307;51.136;14.942;2023-08-08T12:30:30;3.38;;;1.55;;
37445;SDS011;23307;51.136;14.942;2023-08-08T12:32:56;2.25;;;1.60;;
37445;SDS011;23307;51.136;14.942;2023-08-08T12:35:22;3.00;;;1.58;;
37445;SDS011;23307;51.136;14.942;2023-08-08T12:37:47;2.45;;;1.50;;
37445;SDS011;23307;51.136;14.942;2023-08-08T12:40:13;1.92;;;1.20;;
37445;SDS011;23307;51.136;14.942;2023-08-08T12:42:38;3.00;;;1.70;;
37445;SDS011;23307;51.136;14.942;2023-08-08T12:45:05;3.35;;;1.70;;
37445;SDS011;23307;51.136;14.942;2023-08-08T12:47:31;2.55;;;1.30;;
37445;SDS011;23307;51.136;14.942;2023-08-08T12:49:57;3.80;;;1.35;;
37445;SDS011;23307;51.136;14.942;2023-08-08T12:52:23;2.75;;;1.70;;
37445;SDS011;23307;51.136;14.942;2023-08-08T12:54:48;1.85;;;1.48;;
37445;SDS011;23307;51.136;14.942;2023-08-08T12:57:14;2.40;;;1.40;;
37445;SDS011;23307;51.136;14.942;2023-08-08T12:59:39;1.98;;;1.13;;
37445;SDS011;23307;51.136;14.942;2023-08-08T13:02:05;1.50;;;1.27;;
37445;SDS011;23307;51.136;14.942;2023-08-08T13:04:31;2.60;;;1.60;;
37445;SDS011;23307;51.136;14.942;2023-08-08T13:06:57;2.00;;;1.58;;
37445;SDS011;23307;51.136;14.942;2023-08-08T13:09:22;1.63;;;1.42;;
37445;SDS011;23307;51.136;14.942;2023-08-08T13:11:48;1.75;;;1.40;;
37445;SDS011;23307;51.136;14.942;2023-08-08T13:14:13;1.95;;;1.30;;
37445;SDS011;23307;51.136;14.942;2023-08-08T13:16:39;2.90;;;1.55;;
37445;SDS011;23307;51.136;14.942;2023-08-08T13:19:05;1.75;;;1.30;;
37445;SDS011;23307;51.136;14.942;2023-08-08T13:21:31;1.80;;;1.10;;
37445;SDS011;23307;51.136;14.942;2023-08-08T13:23:57;1.92;;;1.17;;
37445;SDS011;23307;51.136;14.942;2023-08-08T13:26:23;3.40;;;1.40;;
37445;SDS011;23307;51.136;14.942;2023-08-08T13:28:48;1.30;;;1.20;;
37445;SDS011;23307;51.136;14.942;2023-08-08T13:31:15;2.90;;;1.35;;
37445;SDS011;23307;51.136;14.942;2023-08-08T13:33:41;3.03;;;1.27;;
37445;SDS011;23307;51.136;14.942;2023-08-08T13:36:06;2.83;;;1.13;;
37445;SDS011;23307;51.136;14.942;2023-08-08T13:38:32;1.90;;;1.10;;
37445;SDS011;23307;51.136;14.942;2023-08-08T13:40:58;1.55;;;1.40;;
37445;SDS011;23307;51.136;14.942;2023-08-08T13:43:25;3.83;;;1.50;;
37445;SDS011;23307;51.136;14.942;2023-08-08T13:45:50;2.25;;;1.40;;
37445;SDS011;23307;51.136;14.942;2023-08-08T13:48:16;1.80;;;1.25;;
37445;SDS011;23307;51.136;14.942;2023-08-08T13:50:41;2.60;;;1.30;;
37445;SDS011;23307;51.136;14.942;2023-08-08T13:53:07;2.05;;;1.40;;
37445;SDS011;23307;51.136;14.942;2023-08-08T13:55:33;1.40;;;1.10;;
37445;SDS011;23307;51.136;14.942;2023-08-08T13:58:04;3.88;;;1.35;;
37445;SDS011;23307;51.136;14.942;2023-08-08T14:00:30;1.50;;;1.13;;
37445;SDS011;23307;51.136;14.942;2023-08-08T14:02:56;3.05;;;1.65;;
37445;SDS011;23307;51.136;14.942;2023-08-08T14:05:22;1.50;;;1.20;;
37445;SDS011;23307;51.136;14.942;2023-08-08T14:07:48;2.88;;;1.40;;
37445;SDS011;23307;51.136;14.942;2023-08-08T14:10:13;4.68;;;1.45;;
37445;SDS011;23307;51.136;14.942;2023-08-08T14:12:40;3.78;;;1.50;;
37445;SDS011;23307;51.136;14.942;2023-08-08T14:15:06;2.90;;;1.40;;
37445;SDS011;23307;51.136;14.942;2023-08-08T14:17:32;2.28;;;1.40;;
37445;SDS011;23307;51.136;14.942;2023-08-08T14:19:57;2.90;;;1.23;;
37445;SDS011;23307;51.136;14.942;2023-08-08T14:22:23;1.50;;;1.40;;
37445;SDS011;23307;51.136;14.942;2023-08-08T14:24:48;1.38;;;1.13;;
37445;SDS011;23307;51.136;14.942;2023-08-08T14:27:14;2.15;;;1.30;;
37445;SDS011;23307;51.136;14.942;2023-08-08T14:29:39;1.42;;;1.20;;